JFK weather

John F Kennedy International Airport
New York, New York, United States

Public forecast

Using degrees Fahrenheit for public forecast. Weather courtesy of forecast.io.

Current aviation weather report (METAR) for John F Kennedy International Airport

Retrieved 2020/08/07 00:51 UTC (14 minutes ago):

KJFK 070051Z 00000KT 10SM SCT070 BKN250 23/17 A3012 RMK AO2 SLP200 T02280172

Aviation forecast (TAF) for John F Kennedy International Airport

Retrieved 2020-08-07 00:40 UTC (25 minutes ago):

TAF KJFK 062333Z 0700/0806 20005KT P6SM SCT060 SCT120 BKN250 FM070200 VRB05KT P6SM BKN060 BKN120 TEMPO 0705/0709 4SM -SHRA OVC035 FM070900 07005KT P6SM -SHRA BKN035 OVC070 FM071000 07006KT 5SM -SHRA BKN030 OVC070 FM071500 08008KT 3SM -SHRA BKN020 OVC050 FM071900 09008KT P6SM VCSH BKN020 BKN040 FM080200 08004KT P6SM VCSH BKN015 OVC035